Pagrindinis puslapis
METAR-TAF:

METAR-TAF

Oro uostai :

Damaskas, Sirija

platuma: 33-25N, ilguma: 036-31E, Aukštis: 608 m

Dabartinis oras

Ataskaita buvo paskelbta 1 valandą ir 3 minutes, ne 10:00 UTC
Vėjas 2 kt iš Pietryčių
Temperatūra 11°C
Drėgmė 94%
Slėgis 1020 hPa

METAR: OSDI 071000Z 13002KT 4000BR 11/10 Q1020

Laikas: 13:03 (11:03 UTC)

Prognozė

Ataskaita buvo paskelbta 7 valandos ir 3 minutes, ne 04:00 UTC
Prognozė galioja nuo 07 metu 06 UTC su 08 metu 12 UTC
Vėjas 3 kt nuo kintamojo kryptimis
Matomumas: 0200 m
Išsisklaidę debesys ne aukštis 1000 ft
rūkas
Tapsmas
nuo 07 metu 08 UTC su 07 metu 10 UTC
Vėjas 3 kt nuo kintamojo kryptimis
Matomumas: 3000 m
rūkana
Laikinai
nuo 07 metu 10 UTC su 07 metu 20 UTC
Vėjas 10 kt iš Pietvakarių
Matomumas: 8000 m
Mažai debesys ne aukštis 3000 ft

TAF: OSDI 070400Z 0706/0812 VRB03KT 0200 FG SCT010 BECMG 0708/0710 VRB03KT 3000 BR TEMPO 0710/0720 22010KT 8000 FEW030

Orai ataskaitas ir orų prognozės (METAR, TAF).

turimą stotys yra geltonos ir raudonos taškus žemėlapyje.

Perkelti pele per norėdami pamatyti stoties vardą.

Tada spustelėkite, norėdami matyti oro stebėjimo ir prognozės.

Norėdami pakeisti žemėlapį: spustelėkite ant žalios mygtukų su juodo kryžiaus žemyn,; žalią mygtuką su brūkšneliu, jei norite nutolinti; arba žalių rodyklių gretimoms žemėlapius.


METAR-TAF: